Česky Dansk Deutsch English Español Suomi Français Magyar Italiano Nederlands norsk Polski Português svenska Türkçe

 

Het Weer

Schleswig-Jagel (Duitsland)

15:20, 22 augustus 2016 (GMT)

NWNNE
WE
SWSSE
Home            
Schleswig-Jagel Hohn Eggebek Gluecksburg / Meierwik Kiel-Holtenau Kiel / Holtenau Civilian Itzehoe Soenderborg Lufthavn Skrydstrup Westerland / Sylt Sydfyns Flyveplads Nordholz Hamburg-Fuhlsbuettel Luebeck-Blankensee Hamburg-Finkenwerder Vamdrup Odense / Beldringe Maribo Lufthavn Esbjerg Vandel Billund Lufthavn Jever Lemwerder

Om een weerknop op uw website of weblog te plaatsen, copieer onderstaande code en plak die in uw pagina. In het eerste vakje staat HTML-code, in het tweede vakje UBB-code.


Add to Google

Details

Wind speed:3 bf, 8 kn, 4.1 m/s, 9.2 miles/h, 14.8 km/h
Wind direction:S, 190°
Visibility: 1300 m, 1.3 km, 4265 ft, 0.8 miles
Het Weer:moderate
moderate
moderate
Temperature:16°C, 61°F
Dew-point:15°C, 59°F
Atmospheric pressure:1021 hPa, 765.8 mmHg, 30.15 inHg, 1.008 atm
Relative humidity:93.8 %
METAR:ETNS 221520Z AUTO 19008KT 1300 16/15 Q1021

Snelkoppelingen

Actuele weersinformatie van de hele wereld. Voeg locaties toe met het plus (+) symbool. Deze snelkoppelingen kunnen worden toegevoegd aan Google.

Lid van de Technetium groep

website free tracking
StatCounter NetStat W3C Validator

18-08-2022 09:23:54
astro.technetium.be money.technetium.be phote.technetium.be tafeltennistafel.technetium.be www.ligfiets.net